createdAt,value
2019-02-17T00:01:15.548Z,71.10
2019-02-17T00:03:44.021Z,71.20
2019-02-17T00:06:12.492Z,71.40
2019-02-17T00:08:40.945Z,71.50
2019-02-17T00:11:09.416Z,71.40
2019-02-17T00:13:37.878Z,71.50
2019-02-17T00:16:06.395Z,71.60
2019-02-17T00:18:34.858Z,71.70
2019-02-17T00:21:03.346Z,71.80
2019-02-17T00:23:31.804Z,71.90
2019-02-17T00:26:00.283Z,72.00
2019-02-17T00:28:28.750Z,72.20
2019-02-17T00:30:57.220Z,72.20
2019-02-17T00:33:25.682Z,72.20
2019-02-17T00:35:54.182Z,72.40
2019-02-17T00:38:22.648Z,73.30
2019-02-17T00:40:51.140Z,72.50
2019-02-17T00:43:19.602Z,72.60
2019-02-17T00:45:48.076Z,72.90
2019-02-17T00:48:16.540Z,72.90
2019-02-17T00:50:45.027Z,72.90
2019-02-17T00:53:13.474Z,72.90
2019-02-17T00:55:41.952Z,73.00
2019-02-17T00:58:10.435Z,73.00
2019-02-17T01:00:38.894Z,73.10
2019-02-17T01:03:07.356Z,73.10
2019-02-17T01:05:35.901Z,73.20
2019-02-17T01:08:04.364Z,73.40
2019-02-17T01:10:32.839Z,73.30
2019-02-17T01:13:01.297Z,73.40
2019-02-17T01:15:29.778Z,73.50
2019-02-17T01:17:58.242Z,73.50
2019-02-17T01:20:26.717Z,73.60
2019-02-17T01:22:55.182Z,74.20
2019-02-17T01:25:23.660Z,73.80
2019-02-17T01:27:52.124Z,73.80
2019-02-17T01:30:20.597Z,73.90
2019-02-17T01:32:49.060Z,73.90
2019-02-17T01:35:17.538Z,73.90
2019-02-17T01:37:45.996Z,74.00
2019-02-17T01:40:14.552Z,74.20
2019-02-17T01:42:43.075Z,74.40
2019-02-17T01:45:11.609Z,74.30
2019-02-17T01:47:40.069Z,74.40
2019-02-17T01:50:09.491Z,74.40
2019-02-17T01:52:37.947Z,74.50
2019-02-17T01:55:08.159Z,74.60
2019-02-17T01:57:36.711Z,74.80
2019-02-17T02:00:10.984Z,74.90
2019-02-17T02:02:39.445Z,75.70
2019-02-17T02:05:08.063Z,75.00
2019-02-17T02:07:36.507Z,75.10
2019-02-17T02:10:07.610Z,75.20
2019-02-17T02:12:36.049Z,75.30
2019-02-17T02:15:11.949Z,75.50
2019-02-17T02:17:40.387Z,75.50
2019-02-17T02:20:11.404Z,75.70
2019-02-17T02:22:39.917Z,75.70
2019-02-17T02:25:08.660Z,75.90
2019-02-17T02:27:37.130Z,75.90
2019-02-17T02:30:09.013Z,76.00
2019-02-17T02:32:37.552Z,76.10
2019-02-17T02:35:07.161Z,76.20
2019-02-17T02:37:35.693Z,76.20
2019-02-17T02:40:04.501Z,76.40
2019-02-17T02:42:32.960Z,76.30
2019-02-17T02:45:01.442Z,76.40
2019-02-17T02:47:29.899Z,76.40
2019-02-17T02:49:58.384Z,76.60
2019-02-17T02:52:26.856Z,76.60
2019-02-17T02:54:55.331Z,76.70
2019-02-17T02:57:23.792Z,76.80
2019-02-17T02:59:52.832Z,76.80
2019-02-17T03:02:21.405Z,76.80
2019-02-17T03:04:49.875Z,76.90
2019-02-17T03:07:18.417Z,77.00
2019-02-17T03:09:46.960Z,77.00
2019-02-17T03:12:15.443Z,77.20
2019-02-17T03:14:43.903Z,77.20
2019-02-17T03:17:12.386Z,77.30
2019-02-17T03:19:40.837Z,77.30
2019-02-17T03:22:09.304Z,77.40
2019-02-17T03:24:37.759Z,77.40
2019-02-17T03:27:06.241Z,77.50
2019-02-17T03:29:34.724Z,77.50
2019-02-17T03:32:03.219Z,77.40
2019-02-17T03:34:31.734Z,77.60
2019-02-17T03:37:00.274Z,77.80
2019-02-17T03:39:28.753Z,77.80
2019-02-17T03:41:57.314Z,77.70
2019-02-17T03:44:25.842Z,77.80
2019-02-17T03:46:54.308Z,77.90
2019-02-17T03:49:22.764Z,78.00
2019-02-17T03:51:51.232Z,78.10
2019-02-17T03:54:19.685Z,78.30
2019-02-17T03:56:48.168Z,78.30
2019-02-17T03:59:16.628Z,78.50
2019-02-17T04:01:45.098Z,78.60
2019-02-17T04:04:13.560Z,78.70
2019-02-17T04:06:42.044Z,78.70
2019-02-17T04:09:10.514Z,78.80
2019-02-17T04:11:38.998Z,78.90
2019-02-17T04:14:07.461Z,78.90
2019-02-17T04:16:35.920Z,79.10
2019-02-17T04:19:04.388Z,79.20
2019-02-17T04:21:33.549Z,79.30
2019-02-17T04:24:02.118Z,79.30
2019-02-17T04:26:30.590Z,79.40
2019-02-17T04:28:59.060Z,80.20
2019-02-17T04:31:27.541Z,79.50
2019-02-17T04:33:56.098Z,79.50
2019-02-17T04:36:24.946Z,79.70
2019-02-17T04:38:53.447Z,79.70
2019-02-17T04:41:21.988Z,79.80
2019-02-17T04:43:50.455Z,79.90
2019-02-17T04:46:19.348Z,80.00
2019-02-17T04:48:47.872Z,80.00
2019-02-17T04:51:16.351Z,80.00
2019-02-17T04:53:44.813Z,80.10
2019-02-17T04:56:13.299Z,80.10
2019-02-17T04:58:41.774Z,80.30
2019-02-17T05:01:10.255Z,80.30
2019-02-17T05:03:38.721Z,80.50
2019-02-17T05:06:07.692Z,80.50
2019-02-17T05:08:36.218Z,80.60
2019-02-17T05:11:04.900Z,80.80
2019-02-17T05:13:33.419Z,80.90
2019-02-17T05:16:01.894Z,81.00
2019-02-17T05:18:30.374Z,81.00
2019-02-17T05:20:58.838Z,81.00
2019-02-17T05:23:27.322Z,81.20
2019-02-17T05:25:55.784Z,81.20
2019-02-17T05:28:24.258Z,81.30
2019-02-17T05:30:53.533Z,81.30
2019-02-17T05:33:22.174Z,81.30
2019-02-17T05:35:50.628Z,81.40
2019-02-17T05:38:19.138Z,81.40
2019-02-17T05:40:47.611Z,81.50
2019-02-17T05:43:16.078Z,81.50
2019-02-17T05:45:44.557Z,81.50
2019-02-17T05:48:13.042Z,81.60
2019-02-17T05:50:41.497Z,81.80
2019-02-17T05:53:09.987Z,81.80
2019-02-17T05:55:38.629Z,81.80
2019-02-17T05:58:07.199Z,82.00
2019-02-17T06:00:36.228Z,82.00
2019-02-17T06:03:04.790Z,82.00
2019-02-17T06:05:33.273Z,82.10
2019-02-17T06:08:01.813Z,82.10
2019-02-17T06:10:30.294Z,82.10
2019-02-17T06:12:58.775Z,82.20
2019-02-17T06:15:27.225Z,82.30
2019-02-17T06:17:55.696Z,82.30
2019-02-17T06:20:24.176Z,82.40
2019-02-17T06:22:52.647Z,82.40
2019-02-17T06:25:21.121Z,82.50
2019-02-17T06:27:49.598Z,82.60
2019-02-17T06:30:18.069Z,82.50
2019-02-17T06:32:46.550Z,82.60
2019-02-17T06:35:15.024Z,82.60
2019-02-17T06:37:43.501Z,82.60
2019-02-17T06:40:11.994Z,82.60
2019-02-17T06:42:40.473Z,82.60
2019-02-17T06:45:10.090Z,82.70
2019-02-17T06:47:38.556Z,82.60
2019-02-17T06:50:09.288Z,82.60
2019-02-17T06:52:37.814Z,82.60
2019-02-17T06:55:23.623Z,82.60
2019-02-17T06:57:52.096Z,82.60
2019-02-17T07:00:22.207Z,83.20
2019-02-17T07:02:50.682Z,82.50
2019-02-17T07:05:33.208Z,82.40
2019-02-17T07:08:02.009Z,82.40
2019-02-17T07:10:30.810Z,82.30
2019-02-17T07:12:59.497Z,82.20
2019-02-17T07:15:28.039Z,82.10
2019-02-17T07:17:56.516Z,82.70
2019-02-17T07:20:25.007Z,81.90
2019-02-17T07:22:53.498Z,81.90
2019-02-17T07:25:29.782Z,81.90
2019-02-17T07:27:52.709Z,81.90
2019-02-17T07:30:21.230Z,81.90
2019-02-17T07:32:49.696Z,81.70
2019-02-17T07:35:18.169Z,81.70
2019-02-17T07:37:46.643Z,81.50
2019-02-17T07:40:15.130Z,81.40
2019-02-17T07:42:43.601Z,81.10
2019-02-17T07:45:12.317Z,81.00
2019-02-17T07:47:40.874Z,80.90
2019-02-17T07:50:10.648Z,80.80
2019-02-17T07:52:39.158Z,80.70
2019-02-17T07:55:10.149Z,80.60
2019-02-17T07:57:38.612Z,80.40
2019-02-17T08:00:10.295Z,80.30
2019-02-17T08:02:38.818Z,80.00
2019-02-17T08:05:08.374Z,79.90
2019-02-17T08:07:36.856Z,79.70
2019-02-17T08:10:09.890Z,79.50
2019-02-17T08:12:38.370Z,79.40
2019-02-17T08:15:09.580Z,79.20
2019-02-17T08:17:38.054Z,79.00
2019-02-17T08:20:10.840Z,78.90
2019-02-17T08:22:39.315Z,78.70
2019-02-17T08:25:08.635Z,78.50
2019-02-17T08:27:37.126Z,78.20
2019-02-17T08:30:11.670Z,78.10
2019-02-17T08:32:40.221Z,77.90
2019-02-17T08:35:09.029Z,77.80
2019-02-17T08:37:37.499Z,77.50
2019-02-17T08:40:10.335Z,77.40
2019-02-17T08:42:38.818Z,77.10
2019-02-17T08:45:09.018Z,76.90
2019-02-17T08:47:37.533Z,76.60
2019-02-17T08:50:09.005Z,76.50
2019-02-17T08:52:37.622Z,76.30
2019-02-17T08:55:08.929Z,76.60
2019-02-17T08:57:38.219Z,75.90
2019-02-17T09:00:13.888Z,75.60
2019-02-17T09:02:42.365Z,75.50
2019-02-17T09:05:11.485Z,75.30
2019-02-17T09:07:40.562Z,75.00
2019-02-17T09:10:11.850Z,74.80
2019-02-17T09:12:40.923Z,74.50
2019-02-17T09:15:11.809Z,74.30
2019-02-17T09:17:40.869Z,73.80
2019-02-17T09:20:11.565Z,73.60
2019-02-17T09:22:40.621Z,73.60
2019-02-17T09:25:11.123Z,73.40
2019-02-17T09:27:40.172Z,73.10
2019-02-17T09:30:12.051Z,73.00
2019-02-17T09:32:41.129Z,72.70
2019-02-17T09:35:10.203Z,72.40
2019-02-17T09:37:39.255Z,72.20
2019-02-17T09:40:10.661Z,72.00
2019-02-17T09:42:39.706Z,71.70
2019-02-17T09:45:11.614Z,71.50
2019-02-17T09:47:40.665Z,71.40
2019-02-17T09:50:14.405Z,71.10
2019-02-17T09:52:43.464Z,71.00
2019-02-17T09:55:12.550Z,70.70
2019-02-17T09:57:41.609Z,70.50
2019-02-17T10:00:15.240Z,71.00
2019-02-17T10:02:44.309Z,70.10
2019-02-17T10:05:32.715Z,69.90
2019-02-17T10:08:01.770Z,69.70
2019-02-17T10:10:30.858Z,69.50
2019-02-17T10:13:01.396Z,69.30
2019-02-17T10:15:30.644Z,69.10
2019-02-17T10:17:59.714Z,69.00
2019-02-17T10:20:28.756Z,68.80
2019-02-17T10:22:57.812Z,68.90
2019-02-17T10:25:26.864Z,68.70
2019-02-17T10:27:55.960Z,68.70
2019-02-17T10:30:25.070Z,68.60
2019-02-17T10:32:54.127Z,68.60
2019-02-17T10:35:23.182Z,68.40
2019-02-17T10:37:52.252Z,69.00
2019-02-17T10:40:21.302Z,68.20
2019-02-17T10:42:50.370Z,68.10
2019-02-17T10:45:19.420Z,68.00
2019-02-17T10:47:48.470Z,67.90
2019-02-17T10:50:17.552Z,67.80
2019-02-17T10:52:46.666Z,67.70
2019-02-17T10:55:15.737Z,67.60
2019-02-17T10:57:44.794Z,67.60
2019-02-17T11:00:19.387Z,67.50
2019-02-17T11:02:48.432Z,67.50
2019-02-17T11:05:17.666Z,67.40
2019-02-17T11:07:46.724Z,67.30
2019-02-17T11:10:15.799Z,67.10
2019-02-17T11:12:44.852Z,67.00
2019-02-17T11:15:20.357Z,66.80
2019-02-17T11:17:49.415Z,66.70
2019-02-17T11:20:18.503Z,66.70
2019-02-17T11:22:47.559Z,66.50
2019-02-17T11:25:16.656Z,66.00
2019-02-17T11:27:46.335Z,66.10
2019-02-17T11:30:20.476Z,66.00
2019-02-17T11:32:57.509Z,65.90
2019-02-17T11:35:20.488Z,65.90
2019-02-17T11:37:49.541Z,65.80
2019-02-17T11:40:18.602Z,65.50
2019-02-17T11:42:47.651Z,65.40
2019-02-17T11:45:18.555Z,65.50
2019-02-17T11:47:47.623Z,65.30
2019-02-17T11:50:16.697Z,65.10
2019-02-17T11:52:45.757Z,66.00
2019-02-17T11:55:15.860Z,65.10
2019-02-17T11:57:44.991Z,64.90
2019-02-17T12:00:19.705Z,64.80
2019-02-17T12:02:48.943Z,64.50
2019-02-17T12:05:18.190Z,64.30
2019-02-17T12:07:47.251Z,64.20
2019-02-17T12:10:16.378Z,63.70
2019-02-17T12:12:45.446Z,63.60
2019-02-17T12:15:14.886Z,63.50
2019-02-17T12:17:43.944Z,63.50
2019-02-17T12:20:35.439Z,63.30
2019-02-17T12:23:06.211Z,63.20
2019-02-17T12:25:36.983Z,63.00
2019-02-17T12:28:07.685Z,63.10
2019-02-17T12:30:37.818Z,63.00
2019-02-17T12:33:06.869Z,62.70
2019-02-17T12:35:36.120Z,62.70
2019-02-17T12:38:05.192Z,62.50
2019-02-17T12:40:34.268Z,62.60
2019-02-17T12:43:03.319Z,62.40
2019-02-17T12:45:32.374Z,63.10
2019-02-17T12:48:01.498Z,61.90
2019-02-17T12:50:30.560Z,61.90
2019-02-17T12:52:59.624Z,61.80
2019-02-17T12:55:28.684Z,61.80
2019-02-17T12:57:57.740Z,61.60
2019-02-17T13:00:26.804Z,61.20
2019-02-17T13:02:55.864Z,61.20
2019-02-17T13:05:24.913Z,61.20
2019-02-17T13:07:53.985Z,61.10
2019-02-17T13:10:23.036Z,61.10
2019-02-17T13:12:52.098Z,60.90
2019-02-17T13:15:21.157Z,60.40
2019-02-17T13:17:50.248Z,60.20
2019-02-17T13:20:19.365Z,59.70
2019-02-17T13:22:48.444Z,59.60
2019-02-17T13:25:18.245Z,59.20
2019-02-17T13:27:47.305Z,59.10
2019-02-17T13:30:22.333Z,58.60
2019-02-17T13:32:51.471Z,58.60
2019-02-17T13:35:20.524Z,58.70
2019-02-17T13:37:49.597Z,58.50
2019-02-17T13:40:18.759Z,58.30
2019-02-17T13:42:47.821Z,58.10
2019-02-17T13:45:17.447Z,57.80
2019-02-17T13:47:46.519Z,57.60
2019-02-17T13:50:16.512Z,57.40
2019-02-17T13:52:45.578Z,57.40
2019-02-17T13:55:14.711Z,57.20
2019-02-17T13:57:43.791Z,57.10
2019-02-17T14:00:18.531Z,56.90
2019-02-17T14:02:47.659Z,56.70
2019-02-17T14:05:16.811Z,56.70
2019-02-17T14:07:46.083Z,56.50
2019-02-17T14:10:15.558Z,56.50
2019-02-17T14:12:44.626Z,56.40
2019-02-17T14:15:18.537Z,56.50
2019-02-17T14:17:47.687Z,56.30
2019-02-17T14:20:16.745Z,56.30
2019-02-17T14:22:45.792Z,56.10
2019-02-17T14:25:14.868Z,56.00
2019-02-17T14:27:43.981Z,55.80
2019-02-17T14:30:17.583Z,55.70
2019-02-17T14:32:46.634Z,55.60
2019-02-17T14:35:15.696Z,55.40
2019-02-17T14:37:44.754Z,55.20
2019-02-17T14:40:14.474Z,55.10
2019-02-17T14:42:43.602Z,55.20
2019-02-17T14:45:16.508Z,55.30
2019-02-17T14:47:45.566Z,55.40
2019-02-17T14:50:14.702Z,55.30
2019-02-17T14:52:43.767Z,55.40
2019-02-17T14:55:13.210Z,55.30
2019-02-17T14:57:42.255Z,56.00
2019-02-17T15:00:14.329Z,55.50
2019-02-17T15:02:43.384Z,55.80
2019-02-17T15:05:12.536Z,56.20
2019-02-17T15:07:41.604Z,55.90
2019-02-17T15:10:14.512Z,56.00
2019-02-17T15:12:43.561Z,56.00
2019-02-17T15:15:14.166Z,56.20
2019-02-17T15:17:43.217Z,56.20
2019-02-17T15:20:14.429Z,56.30
2019-02-17T15:22:43.479Z,56.50
2019-02-17T15:25:12.639Z,56.50
2019-02-17T15:27:41.744Z,56.70
2019-02-17T15:30:17.743Z,56.80
2019-02-17T15:32:46.431Z,56.80
2019-02-17T15:35:15.544Z,56.90
2019-02-17T15:37:44.606Z,57.00
2019-02-17T15:40:14.709Z,57.20
2019-02-17T15:42:43.762Z,57.30
2019-02-17T15:45:13.765Z,57.60
2019-02-17T15:47:42.813Z,57.90
2019-02-17T15:50:14.102Z,58.20
2019-02-17T15:52:43.177Z,58.60
2019-02-17T15:55:13.587Z,59.00
2019-02-17T15:57:42.657Z,59.30
2019-02-17T16:00:16.438Z,59.50
2019-02-17T16:02:45.490Z,59.80
2019-02-17T16:05:14.825Z,60.20
2019-02-17T16:07:43.878Z,60.80
2019-02-17T16:10:16.944Z,61.30
2019-02-17T16:12:46.007Z,61.70
2019-02-17T16:15:20.241Z,62.00
2019-02-17T16:17:49.294Z,62.30
2019-02-17T16:20:18.355Z,62.90
2019-02-17T16:22:47.408Z,63.20
2019-02-17T16:25:16.501Z,64.10
2019-02-17T16:27:45.550Z,64.00
2019-02-17T16:30:19.454Z,64.50
2019-02-17T16:32:48.505Z,65.00
2019-02-17T16:35:17.634Z,66.10
2019-02-17T16:37:46.690Z,65.60
2019-02-17T16:40:16.995Z,65.40
2019-02-17T16:42:46.098Z,66.30
2019-02-17T16:45:15.510Z,66.60
2019-02-17T16:47:45.007Z,66.90
2019-02-17T16:50:28.197Z,67.10
2019-02-17T16:52:57.237Z,67.30
2019-02-17T16:55:26.335Z,68.30
2019-02-17T16:57:55.390Z,67.80
2019-02-17T17:00:27.662Z,68.10
2019-02-17T17:02:57.358Z,68.60
2019-02-17T17:05:26.491Z,69.00
2019-02-17T17:07:55.540Z,69.60
2019-02-17T17:10:24.780Z,69.60
2019-02-17T17:12:53.906Z,70.10
2019-02-17T17:15:22.970Z,70.20
2019-02-17T17:17:52.022Z,70.50
2019-02-17T17:20:22.314Z,70.60
2019-02-17T17:22:51.365Z,71.60
2019-02-17T17:25:20.449Z,71.20
2019-02-17T17:27:49.500Z,71.40
2019-02-17T17:30:19.522Z,71.70
2019-02-17T17:32:48.571Z,71.90
2019-02-17T17:35:17.634Z,72.00
2019-02-17T17:37:46.679Z,72.30
2019-02-17T17:40:16.895Z,72.50
2019-02-17T17:42:45.949Z,72.60
2019-02-17T17:45:17.422Z,72.90
2019-02-17T17:47:48.265Z,73.00
2019-02-17T17:50:17.505Z,73.30
2019-02-17T17:52:46.573Z,73.40
2019-02-17T17:55:15.711Z,73.70
2019-02-17T17:57:44.762Z,74.00
2019-02-17T18:00:25.722Z,73.90
2019-02-17T18:02:54.786Z,74.90
2019-02-17T18:05:23.855Z,74.20
2019-02-17T18:07:52.904Z,74.40
2019-02-17T18:10:21.972Z,74.60
2019-02-17T18:12:51.402Z,74.80
2019-02-17T18:15:20.828Z,75.00
2019-02-17T18:17:54.345Z,75.20
2019-02-17T18:20:20.928Z,75.30
2019-02-17T18:22:49.968Z,75.40
2019-02-17T18:25:19.096Z,75.70
2019-02-17T18:27:48.167Z,75.60
2019-02-17T18:30:18.584Z,75.70
2019-02-17T18:32:47.656Z,75.90
2019-02-17T18:35:20.372Z,76.00
2019-02-17T18:37:47.567Z,76.20
2019-02-17T18:40:20.407Z,76.20
2019-02-17T18:42:49.454Z,76.20
2019-02-17T18:45:18.518Z,76.20
2019-02-17T18:47:47.586Z,76.40
2019-02-17T18:50:17.886Z,76.20
2019-02-17T18:52:47.004Z,75.90
2019-02-17T18:55:16.098Z,75.20
2019-02-17T18:57:49.974Z,74.40
2019-02-17T19:00:18.615Z,74.00
2019-02-17T19:02:47.672Z,73.40
2019-02-17T19:05:16.730Z,72.90
2019-02-17T19:07:45.979Z,72.30
2019-02-17T19:10:15.330Z,72.00
2019-02-17T19:12:44.448Z,71.70
2019-02-17T19:15:23.662Z,71.50
2019-02-17T19:17:52.716Z,71.30
2019-02-17T19:20:27.821Z,71.00
2019-02-17T19:22:56.865Z,70.70
2019-02-17T19:25:25.941Z,70.40
2019-02-17T19:27:54.988Z,70.00
2019-02-17T19:30:24.049Z,69.60
2019-02-17T19:32:54.661Z,69.50
2019-02-17T19:35:23.711Z,69.40
2019-02-17T19:37:52.764Z,69.40
2019-02-17T19:40:21.838Z,69.30
2019-02-17T19:42:50.888Z,69.10
2019-02-17T19:45:20.219Z,68.90
2019-02-17T19:47:49.260Z,68.70
2019-02-17T19:50:18.384Z,68.50
2019-02-17T19:52:47.451Z,68.40
2019-02-17T19:55:16.494Z,68.30
2019-02-17T19:57:45.569Z,68.10
2019-02-17T20:00:16.215Z,68.00
2019-02-17T20:02:59.003Z,67.90
2019-02-17T20:05:29.671Z,67.70
2019-02-17T20:07:58.730Z,67.70
2019-02-17T20:10:27.802Z,67.30
2019-02-17T20:12:56.845Z,67.40
2019-02-17T20:15:27.570Z,67.20
2019-02-17T20:17:56.618Z,67.20
2019-02-17T20:20:25.664Z,67.20
2019-02-17T20:22:54.726Z,67.10
2019-02-17T20:25:23.774Z,67.10
2019-02-17T20:27:52.856Z,67.10
2019-02-17T20:30:21.888Z,67.10
2019-02-17T20:32:50.944Z,67.20
2019-02-17T20:35:20.060Z,67.10
2019-02-17T20:37:49.118Z,67.20
2019-02-17T20:40:18.905Z,67.20
2019-02-17T20:42:47.979Z,67.00
2019-02-17T20:45:17.028Z,67.00
2019-02-17T20:47:46.091Z,66.80
2019-02-17T20:50:16.597Z,66.90
2019-02-17T20:52:45.667Z,66.90
2019-02-17T20:55:14.888Z,67.00
2019-02-17T20:57:43.945Z,67.10
2019-02-17T21:00:14.656Z,67.30
2019-02-17T21:02:43.782Z,67.40
2019-02-17T21:05:13.056Z,67.50
2019-02-17T21:07:42.129Z,67.70
2019-02-17T21:10:12.332Z,67.70
2019-02-17T21:12:41.374Z,68.70
2019-02-17T21:15:12.172Z,67.80
2019-02-17T21:17:41.226Z,67.90
2019-02-17T21:20:11.414Z,67.90
2019-02-17T21:22:40.554Z,68.90
2019-02-17T21:25:11.127Z,68.20
2019-02-17T21:27:40.264Z,68.20
2019-02-17T21:30:14.545Z,68.40
2019-02-17T21:32:43.602Z,68.50
2019-02-17T21:35:14.099Z,68.60
2019-02-17T21:37:43.217Z,68.60
2019-02-17T21:40:13.227Z,68.70
2019-02-17T21:42:42.717Z,68.80
2019-02-17T21:45:13.073Z,68.90
2019-02-17T21:47:42.139Z,69.00
2019-02-17T21:50:13.388Z,69.10
2019-02-17T21:52:42.583Z,69.30
2019-02-17T21:55:13.305Z,69.30
2019-02-17T21:57:42.419Z,69.40
2019-02-17T22:00:17.641Z,69.60
2019-02-17T22:02:46.687Z,69.60
2019-02-17T22:05:15.730Z,69.80
2019-02-17T22:07:45.076Z,70.00
2019-02-17T22:10:16.487Z,70.10
2019-02-17T22:12:45.619Z,70.30
2019-02-17T22:15:21.284Z,70.50
2019-02-17T22:17:49.767Z,70.60
2019-02-17T22:20:18.827Z,70.60
2019-02-17T22:22:47.303Z,70.80
2019-02-17T22:25:16.605Z,70.70
2019-02-17T22:27:45.656Z,70.80
2019-02-17T22:30:15.966Z,70.80
2019-02-17T22:32:44.591Z,70.80
2019-02-17T22:35:13.988Z,71.00
2019-02-17T22:37:43.039Z,71.10
2019-02-17T22:40:13.489Z,71.50
2019-02-17T22:42:41.963Z,71.30
2019-02-17T22:45:13.522Z,71.40
2019-02-17T22:47:42.005Z,71.50
2019-02-17T22:50:15.134Z,71.40
2019-02-17T22:52:45.434Z,71.50
2019-02-17T22:55:14.569Z,71.50
2019-02-17T22:57:43.688Z,71.60
2019-02-17T23:00:49.916Z,71.70
2019-02-17T23:03:18.946Z,71.80
2019-02-17T23:05:48.000Z,72.00
2019-02-17T23:08:16.463Z,72.10
2019-02-17T23:10:44.936Z,72.10
2019-02-17T23:13:13.990Z,72.20
2019-02-17T23:15:42.478Z,72.30
2019-02-17T23:18:10.946Z,72.30
2019-02-17T23:20:39.414Z,72.30
2019-02-17T23:23:07.916Z,72.40
2019-02-17T23:25:36.393Z,72.40
2019-02-17T23:28:05.513Z,72.50
2019-02-17T23:30:34.024Z,72.50
2019-02-17T23:33:02.504Z,72.50
2019-02-17T23:35:30.975Z,72.60
2019-02-17T23:37:59.442Z,72.70
2019-02-17T23:40:27.936Z,72.70
2019-02-17T23:42:56.392Z,72.80
2019-02-17T23:45:24.873Z,73.00
2019-02-17T23:47:53.341Z,73.00
2019-02-17T23:50:21.828Z,73.20
2019-02-17T23:52:50.869Z,73.30
2019-02-17T23:55:19.351Z,73.30
2019-02-17T23:57:47.823Z,73.40
